Bluegrove, Texas
Current Conditions -  °F | °C
As of 8:35 PM on Wednesday 22 Oct 2014 (Local Time) from KCWC Reporting Station
Broken Clouds Broken Clouds  
Wind Chill: 70°   Ceiling: 11000
Heat Index: 70°   Visibility: 10mi
Dew Point: 58°   Wind: 8mph
Humidity: 65%   Direction: 270°W
Pressure: 30.11"   Gusts: NA
Location:  33.67°N, 98.23°W
Report Text: KCWC 230135Z AUTO 27007KT 10SM BKN110 21/14 A3011 RMK AO2 T02090142
Loading
Personal Weather Stations






























Interactive Weather Map New forecast layout! Learn more

10-Day Weather Forecast

Advertisements
Track Severe Weather on mobile